createdAt,value
2018-07-12T00:01:13.659Z,18.50
2018-07-12T00:03:40.152Z,18.50
2018-07-12T00:06:06.668Z,18.40
2018-07-12T00:08:33.144Z,18.40
2018-07-12T00:10:59.637Z,18.40
2018-07-12T00:13:26.109Z,18.50
2018-07-12T00:15:52.596Z,18.50
2018-07-12T00:18:19.084Z,18.60
2018-07-12T00:20:45.972Z,18.60
2018-07-12T00:23:12.449Z,18.60
2018-07-12T00:25:39.009Z,18.60
2018-07-12T00:28:05.510Z,18.70
2018-07-12T00:30:31.983Z,18.70
2018-07-12T00:32:58.493Z,18.70
2018-07-12T00:35:25.004Z,18.70
2018-07-12T00:37:51.580Z,18.70
2018-07-12T00:40:18.106Z,18.70
2018-07-12T00:42:44.591Z,18.70
2018-07-12T00:45:11.087Z,18.50
2018-07-12T00:47:37.673Z,18.30
2018-07-12T00:50:04.289Z,18.20
2018-07-12T00:52:31.065Z,18.10
2018-07-12T00:54:57.585Z,18.00
2018-07-12T00:57:24.065Z,18.00
2018-07-12T00:59:50.547Z,18.00
2018-07-12T01:02:17.038Z,17.90
2018-07-12T01:04:43.523Z,17.80
2018-07-12T01:07:10.012Z,17.80
2018-07-12T01:09:36.539Z,17.80
2018-07-12T01:12:03.010Z,17.80
2018-07-12T01:14:29.492Z,17.90
2018-07-12T01:19:22.906Z,17.90
2018-07-12T01:21:49.392Z,17.90
2018-07-12T01:24:15.882Z,17.90
2018-07-12T01:26:42.360Z,17.90
2018-07-12T01:29:08.889Z,17.80
2018-07-12T01:31:35.395Z,17.80
2018-07-12T01:34:01.868Z,17.80
2018-07-12T01:36:28.331Z,17.80
2018-07-12T01:38:54.835Z,17.80
2018-07-12T01:41:21.303Z,17.70
2018-07-12T01:43:47.810Z,17.80
2018-07-12T01:46:14.299Z,17.90
2018-07-12T01:48:40.769Z,18.00
2018-07-12T01:51:07.244Z,18.00
2018-07-12T01:53:33.745Z,18.00
2018-07-12T01:56:00.221Z,18.10
2018-07-12T01:58:26.694Z,18.10
2018-07-12T02:03:20.107Z,18.30
2018-07-12T02:05:46.593Z,18.40
2018-07-12T02:08:13.095Z,18.30
2018-07-12T02:10:39.563Z,18.30
2018-07-12T02:13:06.033Z,18.40
2018-07-12T02:15:32.543Z,18.50
2018-07-12T02:17:59.038Z,18.40
2018-07-12T02:20:25.525Z,18.50
2018-07-12T02:22:52.419Z,18.50
2018-07-12T02:25:18.922Z,18.50
2018-07-12T02:27:45.382Z,18.50
2018-07-12T02:30:11.899Z,18.50
2018-07-12T02:32:38.386Z,18.50
2018-07-12T02:35:04.962Z,18.50
2018-07-12T02:37:31.443Z,18.50
2018-07-12T02:39:57.938Z,18.40
2018-07-12T02:42:24.432Z,18.40
2018-07-12T02:44:51.170Z,18.40
2018-07-12T02:47:18.075Z,18.40
2018-07-12T02:49:44.602Z,18.40
2018-07-12T02:52:11.346Z,18.40
2018-07-12T02:54:37.838Z,18.30
2018-07-12T02:57:04.337Z,18.20
2018-07-12T02:59:30.888Z,18.30
2018-07-12T03:01:57.382Z,18.30
2018-07-12T03:04:23.846Z,18.30
2018-07-12T03:06:50.312Z,18.30
2018-07-12T03:09:16.797Z,18.40
2018-07-12T03:11:43.270Z,18.40
2018-07-12T03:14:09.732Z,18.30
2018-07-12T03:16:36.500Z,18.30
2018-07-12T03:19:03.009Z,18.30
2018-07-12T03:21:29.506Z,18.40
2018-07-12T03:23:56.099Z,18.40
2018-07-12T03:26:22.614Z,18.40
2018-07-12T03:28:49.764Z,18.50
2018-07-12T03:31:16.248Z,18.50
2018-07-12T03:33:42.737Z,18.60
2018-07-12T03:36:09.213Z,18.50
2018-07-12T03:41:02.629Z,18.50
2018-07-12T03:43:29.167Z,18.50
2018-07-12T03:45:55.662Z,18.60
2018-07-12T03:48:22.142Z,18.60
2018-07-12T03:50:48.633Z,18.50
2018-07-12T03:53:15.149Z,18.50
2018-07-12T03:55:41.657Z,18.50
2018-07-12T03:58:08.134Z,18.50
2018-07-12T04:00:34.625Z,18.50
2018-07-12T04:03:01.103Z,18.50
2018-07-12T04:05:28.450Z,18.40
2018-07-12T04:07:54.963Z,18.30
2018-07-12T04:10:21.435Z,18.20
2018-07-12T04:12:48.133Z,18.10
2018-07-12T04:15:14.641Z,18.10
2018-07-12T04:17:41.109Z,18.20
2018-07-12T04:20:07.583Z,18.20
2018-07-12T04:22:35.199Z,18.10
2018-07-12T04:25:01.682Z,18.20
2018-07-12T04:27:28.420Z,18.30
2018-07-12T04:29:56.429Z,18.20
2018-07-12T04:32:22.932Z,18.20
2018-07-12T04:34:50.010Z,18.20
2018-07-12T04:37:16.761Z,18.10
2018-07-12T04:39:43.471Z,18.20
2018-07-12T04:42:09.956Z,18.20
2018-07-12T04:44:36.492Z,18.30
2018-07-12T04:47:03.127Z,18.40
2018-07-12T04:49:29.609Z,18.50
2018-07-12T04:51:58.090Z,18.50
2018-07-12T04:54:26.869Z,18.50
2018-07-12T04:56:53.395Z,18.50
2018-07-12T04:59:20.592Z,18.60
2018-07-12T05:01:47.511Z,18.60
2018-07-12T05:04:13.992Z,18.70
2018-07-12T05:06:40.474Z,18.70
2018-07-12T05:09:08.236Z,18.70
2018-07-12T05:11:34.743Z,18.80
2018-07-12T05:14:01.223Z,18.80
2018-07-12T05:16:27.703Z,18.70
2018-07-12T05:18:54.176Z,18.70
2018-07-12T05:21:20.651Z,18.80
2018-07-12T05:23:47.157Z,18.80
2018-07-12T05:26:13.631Z,18.90
2018-07-12T05:28:40.140Z,19.00
2018-07-12T05:31:06.864Z,19.00
2018-07-12T05:33:33.369Z,18.90
2018-07-12T05:36:02.532Z,19.00
2018-07-12T05:38:30.077Z,19.00
2018-07-12T05:43:25.193Z,19.20
2018-07-12T05:45:52.794Z,19.20
2018-07-12T05:48:20.369Z,19.20
2018-07-12T05:50:49.101Z,19.30
2018-07-12T05:53:18.159Z,19.40
2018-07-12T05:55:45.872Z,19.40
2018-07-12T05:58:13.511Z,19.50
2018-07-12T06:00:41.893Z,19.30
2018-07-12T06:05:37.428Z,19.40
2018-07-12T06:08:06.796Z,19.40
2018-07-12T06:10:35.821Z,19.40
2018-07-12T06:13:04.204Z,19.60
2018-07-12T06:15:31.826Z,19.70
2018-07-12T06:17:59.500Z,19.60
2018-07-12T06:20:27.148Z,19.60
2018-07-12T06:22:54.779Z,19.50
2018-07-12T06:25:22.526Z,19.50
2018-07-12T06:27:50.204Z,19.30
2018-07-12T06:30:17.874Z,19.30
2018-07-12T06:32:45.543Z,19.30
2018-07-12T06:35:13.352Z,19.30
2018-07-12T06:37:41.008Z,19.30
2018-07-12T06:40:08.682Z,19.40
2018-07-12T06:42:36.411Z,19.50
2018-07-12T06:45:05.150Z,19.60
2018-07-12T06:47:32.857Z,19.50
2018-07-12T06:50:00.518Z,19.40
2018-07-12T06:52:29.418Z,19.50
2018-07-12T06:54:57.330Z,19.70
2018-07-12T06:57:25.289Z,19.80
2018-07-12T06:59:53.014Z,20.00
2018-07-12T07:02:20.682Z,20.10
2018-07-12T07:04:48.406Z,20.30
2018-07-12T07:07:16.062Z,20.50
2018-07-12T07:09:43.736Z,20.70
2018-07-12T07:12:11.464Z,20.70
2018-07-12T07:14:39.203Z,20.60
2018-07-12T07:17:07.011Z,20.60
2018-07-12T07:19:34.758Z,20.60
2018-07-12T07:22:02.516Z,20.80
2018-07-12T07:24:30.344Z,20.90
2018-07-12T07:26:58.064Z,20.70
2018-07-12T07:29:25.744Z,20.40
2018-07-12T07:31:53.453Z,20.60
2018-07-12T07:34:21.157Z,20.70
2018-07-12T07:36:48.937Z,20.70
2018-07-12T07:39:16.718Z,20.50
2018-07-12T07:41:44.372Z,20.40
2018-07-12T07:44:12.034Z,20.30
2018-07-12T07:46:39.710Z,20.20
2018-07-12T07:49:07.438Z,20.30
2018-07-12T07:51:35.137Z,20.60
2018-07-12T07:54:02.817Z,21.10
2018-07-12T07:56:30.499Z,21.20
2018-07-12T07:58:58.163Z,21.40
2018-07-12T08:01:27.231Z,21.60
2018-07-12T08:03:58.964Z,21.90
2018-07-12T08:06:26.701Z,21.80
2018-07-12T08:08:54.367Z,21.50
2018-07-12T08:11:22.393Z,21.30
2018-07-12T08:13:50.691Z,21.20
2018-07-12T08:16:19.993Z,21.40
2018-07-12T08:18:47.891Z,21.40
2018-07-12T08:21:16.991Z,21.60
2018-07-12T08:23:46.187Z,21.90
2018-07-12T08:26:14.263Z,22.30
2018-07-12T08:29:30.955Z,22.50
2018-07-12T08:31:58.595Z,22.50
2018-07-12T08:34:26.679Z,22.70
2018-07-12T08:36:54.600Z,22.80
2018-07-12T08:39:22.262Z,22.90
2018-07-12T08:44:32.542Z,23.10
2018-07-12T08:47:01.629Z,23.20
2018-07-12T08:49:31.104Z,23.20
2018-07-12T08:52:02.937Z,23.50
2018-07-12T08:54:30.601Z,23.60
2018-07-12T08:56:58.193Z,24.10
2018-07-12T08:59:25.833Z,24.50
2018-07-12T09:01:53.450Z,24.80
2018-07-12T09:04:21.093Z,24.90
2018-07-12T09:06:48.844Z,25.00
2018-07-12T09:09:16.533Z,25.10
2018-07-12T09:11:44.259Z,25.50
2018-07-12T09:14:11.911Z,25.70
2018-07-12T09:16:39.565Z,25.90
2018-07-12T09:19:07.212Z,25.90
2018-07-12T09:21:34.881Z,25.80
2018-07-12T09:24:02.569Z,25.60
2018-07-12T09:26:30.219Z,25.70
2018-07-12T09:28:57.914Z,25.60
2018-07-12T09:31:25.708Z,25.80
2018-07-12T09:33:53.535Z,26.00
2018-07-12T09:36:21.198Z,25.90
2018-07-12T09:38:50.819Z,26.10
2018-07-12T09:41:19.448Z,26.30
2018-07-12T09:43:47.964Z,26.70
2018-07-12T09:46:15.941Z,26.50
2018-07-12T09:48:45.149Z,26.70
2018-07-12T09:51:13.487Z,26.40
2018-07-12T09:53:42.355Z,26.50
2018-07-12T09:56:10.352Z,26.50
2018-07-12T09:58:38.896Z,26.70
2018-07-12T10:03:14.166Z,26.50
2018-07-12T10:05:47.604Z,26.00
2018-07-12T10:10:55.461Z,26.80
2018-07-12T10:13:24.099Z,26.90
2018-07-12T10:15:57.404Z,27.40
2018-07-12T10:18:27.900Z,27.50
2018-07-12T10:20:55.762Z,27.50
2018-07-12T10:23:23.942Z,27.20
2018-07-12T10:25:51.732Z,27.30
2018-07-12T10:28:19.500Z,27.50
2018-07-12T10:33:16.024Z,27.20
2018-07-12T10:35:43.742Z,27.00
2018-07-12T10:38:11.440Z,26.50
2018-07-12T10:40:39.170Z,26.30
2018-07-12T10:43:07.391Z,26.30
2018-07-12T10:45:35.176Z,26.30
2018-07-12T10:48:03.385Z,26.90
2018-07-12T10:50:31.224Z,26.60
2018-07-12T10:52:58.927Z,26.80
2018-07-12T10:55:26.593Z,26.40
2018-07-12T10:57:54.474Z,26.50
2018-07-12T11:00:22.194Z,26.60
2018-07-12T11:02:49.915Z,26.70
2018-07-12T11:05:17.955Z,26.90
2018-07-12T11:07:45.926Z,27.10
2018-07-12T11:10:14.020Z,26.90
2018-07-12T11:12:41.933Z,27.40
2018-07-12T11:15:09.656Z,27.80
2018-07-12T11:17:37.389Z,27.70
2018-07-12T11:20:05.375Z,27.70
2018-07-12T11:22:33.389Z,28.10
2018-07-12T11:25:01.106Z,28.60
2018-07-12T11:27:28.783Z,29.10
2018-07-12T11:29:57.922Z,29.30
2018-07-12T11:32:25.654Z,29.40
2018-07-12T11:34:53.355Z,29.30
2018-07-12T11:37:23.668Z,29.50
2018-07-12T11:39:51.677Z,29.00
2018-07-12T11:42:19.357Z,29.20
2018-07-12T11:44:47.484Z,29.60
2018-07-12T11:47:15.862Z,29.40
2018-07-12T11:49:43.540Z,28.80
2018-07-12T11:52:11.274Z,29.30
2018-07-12T11:54:38.964Z,29.40
2018-07-12T11:57:06.638Z,29.40
2018-07-12T11:59:34.344Z,29.80
2018-07-12T12:02:02.053Z,30.10
2018-07-12T12:04:29.928Z,30.10
2018-07-12T12:06:57.886Z,29.60
2018-07-12T12:09:25.640Z,29.40
2018-07-12T12:11:53.395Z,29.80
2018-07-12T12:14:21.064Z,30.50
2018-07-12T12:16:48.749Z,30.60
2018-07-12T12:19:16.450Z,30.80
2018-07-12T12:21:44.116Z,30.60
2018-07-12T12:24:11.790Z,30.40
2018-07-12T12:26:39.498Z,30.90
2018-07-12T12:29:07.185Z,31.60
2018-07-12T12:31:34.948Z,31.80
2018-07-12T12:34:03.024Z,32.10
2018-07-12T12:36:30.721Z,31.80
2018-07-12T12:38:58.381Z,31.30
2018-07-12T12:41:26.090Z,31.60
2018-07-12T12:43:53.775Z,32.10
2018-07-12T12:46:21.589Z,31.80
2018-07-12T12:48:49.209Z,32.10
2018-07-12T12:53:44.509Z,32.10
2018-07-12T12:56:12.245Z,31.90
2018-07-12T12:58:40.191Z,32.20
2018-07-12T13:01:07.997Z,32.10
2018-07-12T13:03:35.695Z,32.20
2018-07-12T13:06:03.570Z,32.30
2018-07-12T13:08:31.317Z,32.20
2018-07-12T13:10:59.107Z,32.30
2018-07-12T13:13:26.794Z,32.20
2018-07-12T13:15:54.473Z,32.70
2018-07-12T13:18:22.173Z,32.40
2018-07-12T13:20:49.907Z,32.50
2018-07-12T13:23:17.566Z,32.60
2018-07-12T13:25:45.345Z,33.20
2018-07-12T13:28:13.131Z,33.40
2018-07-12T13:30:40.937Z,33.90
2018-07-12T13:33:08.745Z,34.40
2018-07-12T13:35:36.533Z,33.30
2018-07-12T13:38:04.305Z,33.40
2018-07-12T13:40:31.989Z,33.40
2018-07-12T13:42:59.701Z,33.70
2018-07-12T13:45:27.641Z,33.10
2018-07-12T13:47:55.369Z,32.60
2018-07-12T13:50:23.080Z,32.90
2018-07-12T13:52:50.778Z,32.60
2018-07-12T13:55:18.477Z,32.70
2018-07-12T13:57:46.281Z,33.50
2018-07-12T14:00:14.001Z,33.90
2018-07-12T14:02:41.623Z,34.50
2018-07-12T14:05:09.411Z,34.90
2018-07-12T14:07:37.119Z,35.50
2018-07-12T14:10:05.195Z,35.50
2018-07-12T14:12:32.891Z,35.50
2018-07-12T14:15:00.586Z,35.50
2018-07-12T14:17:28.247Z,36.10
2018-07-12T14:19:55.931Z,35.90
2018-07-12T14:22:23.736Z,36.20
2018-07-12T14:24:51.412Z,36.10
2018-07-12T14:27:19.085Z,36.00
2018-07-12T14:29:46.781Z,36.00
2018-07-12T14:32:14.452Z,36.30
2018-07-12T14:34:42.133Z,36.20
2018-07-12T14:37:09.851Z,36.40
2018-07-12T14:39:37.514Z,36.90
2018-07-12T14:42:05.189Z,37.00
2018-07-12T14:44:32.881Z,36.80
2018-07-12T14:47:00.532Z,36.60
2018-07-12T14:49:28.282Z,36.50
2018-07-12T14:51:55.950Z,36.90
2018-07-12T14:54:23.689Z,37.00
2018-07-12T14:56:51.360Z,37.20
2018-07-12T14:59:19.054Z,36.90
2018-07-12T15:01:46.755Z,36.90
2018-07-12T15:04:14.381Z,37.00
2018-07-12T15:06:42.083Z,37.30
2018-07-12T15:09:09.894Z,37.50
2018-07-12T15:11:37.693Z,36.90
2018-07-12T15:14:05.625Z,37.80
2018-07-12T15:16:33.342Z,38.70
2018-07-12T15:19:01.146Z,37.60
2018-07-12T15:21:28.800Z,36.90
2018-07-12T15:26:24.173Z,37.60
2018-07-12T15:28:51.785Z,37.60
2018-07-12T15:31:19.462Z,37.50
2018-07-12T15:36:14.758Z,37.20
2018-07-12T15:38:42.408Z,37.00
2018-07-12T15:41:10.105Z,36.80
2018-07-12T15:43:37.840Z,36.90
2018-07-12T15:46:05.706Z,37.00
2018-07-12T15:48:33.392Z,37.20
2018-07-12T15:51:01.098Z,36.70
2018-07-12T15:53:28.772Z,36.40
2018-07-12T15:55:56.453Z,35.50
2018-07-12T15:58:24.150Z,35.20
2018-07-12T16:00:51.837Z,35.70
2018-07-12T16:03:19.566Z,36.20
2018-07-12T16:05:47.269Z,36.60
2018-07-12T16:08:15.256Z,36.90
2018-07-12T16:10:42.990Z,36.20
2018-07-12T16:13:10.706Z,35.60
2018-07-12T16:15:38.440Z,35.50
2018-07-12T16:18:06.160Z,35.60
2018-07-12T16:20:33.874Z,35.60
2018-07-12T16:23:02.468Z,36.10
2018-07-12T16:25:30.356Z,36.10
2018-07-12T16:27:58.047Z,35.90
2018-07-12T16:30:25.795Z,35.80
2018-07-12T16:32:53.495Z,35.50
2018-07-12T16:35:21.170Z,35.10
2018-07-12T16:37:48.897Z,35.50
2018-07-12T16:40:16.567Z,35.50
2018-07-12T16:42:44.238Z,35.80
2018-07-12T16:45:12.003Z,36.20
2018-07-12T16:47:39.690Z,36.20
2018-07-12T16:50:07.477Z,35.10
2018-07-12T16:55:02.831Z,34.00
2018-07-12T16:57:30.552Z,33.30
2018-07-12T16:59:58.270Z,33.60
2018-07-12T17:02:25.960Z,33.70
2018-07-12T17:04:53.753Z,34.10
2018-07-12T17:07:21.612Z,33.80
2018-07-12T17:09:49.199Z,34.60
2018-07-12T17:12:16.878Z,34.80
2018-07-12T17:14:44.562Z,35.00
2018-07-12T17:17:12.279Z,34.90
2018-07-12T17:19:40.016Z,34.80
2018-07-12T17:22:08.025Z,34.90
2018-07-12T17:24:35.784Z,34.80
2018-07-12T17:27:03.503Z,34.10
2018-07-12T17:29:31.216Z,33.80
2018-07-12T17:31:58.951Z,33.70
2018-07-12T17:36:54.358Z,33.90
2018-07-12T17:39:22.033Z,33.30
2018-07-12T17:41:49.813Z,33.30
2018-07-12T17:46:45.077Z,32.90
2018-07-12T17:49:12.842Z,32.10
2018-07-12T17:51:40.517Z,32.60
2018-07-12T17:54:08.208Z,32.90
2018-07-12T17:56:36.035Z,33.00
2018-07-12T17:59:03.759Z,33.10
2018-07-12T18:01:31.469Z,33.20
2018-07-12T18:03:59.173Z,33.00
2018-07-12T18:06:26.854Z,33.10
2018-07-12T18:08:54.535Z,33.10
2018-07-12T18:11:22.259Z,32.50
2018-07-12T18:13:50.293Z,32.50
2018-07-12T18:16:17.993Z,31.90
2018-07-12T18:18:45.752Z,30.90
2018-07-12T18:23:40.994Z,29.80
2018-07-12T18:26:08.771Z,29.00
2018-07-12T18:28:36.413Z,28.50
2018-07-12T18:31:04.128Z,28.10
2018-07-12T18:33:31.839Z,27.70
2018-07-12T18:35:59.503Z,27.50
2018-07-12T18:38:27.181Z,27.30
2018-07-12T18:40:54.851Z,27.10
2018-07-12T18:43:22.599Z,27.00
2018-07-12T18:45:50.627Z,26.80
2018-07-12T18:48:18.656Z,26.70
2018-07-12T18:50:46.586Z,26.50
2018-07-12T18:53:14.249Z,26.20
2018-07-12T18:55:41.897Z,25.80
2018-07-12T18:58:09.625Z,25.60
2018-07-12T19:00:37.292Z,25.60
2018-07-12T19:03:05.070Z,25.40
2018-07-12T19:05:32.715Z,25.20
2018-07-12T19:08:00.431Z,25.10
2018-07-12T19:10:28.095Z,24.70
2018-07-12T19:12:55.834Z,24.50
2018-07-12T19:15:23.549Z,24.20
2018-07-12T19:17:51.311Z,24.00
2018-07-12T19:20:19.055Z,24.00
2018-07-12T19:22:46.758Z,23.80
2018-07-12T19:25:14.490Z,23.80
2018-07-12T19:27:42.180Z,23.70
2018-07-12T19:30:10.016Z,23.50
2018-07-12T19:32:37.684Z,23.50
2018-07-12T19:35:05.516Z,23.50
2018-07-12T19:37:33.276Z,23.30
2018-07-12T19:40:01.136Z,23.20
2018-07-12T19:42:28.944Z,23.20
2018-07-12T19:44:56.604Z,23.00
2018-07-12T19:47:24.287Z,22.80
2018-07-12T19:49:51.955Z,22.80
2018-07-12T19:52:19.624Z,22.80
2018-07-12T19:54:47.568Z,22.70
2018-07-12T19:57:15.240Z,22.60
2018-07-12T20:02:10.840Z,22.40
2018-07-12T20:04:38.570Z,22.20
2018-07-12T20:07:06.402Z,22.10
2018-07-12T20:09:34.162Z,22.00
2018-07-12T20:12:02.027Z,22.00
2018-07-12T20:14:29.782Z,21.80
2018-07-12T20:16:57.496Z,21.80
2018-07-12T20:19:25.326Z,21.90
2018-07-12T20:24:20.851Z,21.60
2018-07-12T20:26:48.764Z,21.60
2018-07-12T20:29:16.600Z,21.50
2018-07-12T20:31:44.300Z,21.50
2018-07-12T20:34:12.134Z,21.50
2018-07-12T20:36:39.794Z,21.50
2018-07-12T20:39:08.216Z,21.30
2018-07-12T20:41:36.232Z,21.20
2018-07-12T20:44:04.043Z,21.10
2018-07-12T20:46:31.705Z,21.00
2018-07-12T20:48:59.596Z,21.00
2018-07-12T20:51:27.264Z,20.80
2018-07-12T20:53:55.124Z,20.60
2018-07-12T20:56:22.825Z,20.40
2018-07-12T21:01:18.540Z,20.20
2018-07-12T21:03:46.235Z,20.20
2018-07-12T21:06:13.884Z,20.10
2018-07-12T21:08:41.574Z,20.20
2018-07-12T21:11:09.324Z,20.30
2018-07-12T21:13:36.988Z,20.40
2018-07-12T21:16:05.330Z,20.40
2018-07-12T21:18:33.046Z,20.40
2018-07-12T21:21:00.946Z,20.40
2018-07-12T21:23:28.609Z,20.50
2018-07-12T21:25:56.362Z,20.50
2018-07-12T21:28:24.061Z,20.40
2018-07-12T21:30:51.725Z,20.30
2018-07-12T21:33:19.460Z,20.30
2018-07-12T21:35:47.080Z,20.30
2018-07-12T21:38:14.741Z,20.30
2018-07-12T21:40:43.043Z,20.20
2018-07-12T21:43:10.797Z,20.30
2018-07-12T21:45:38.539Z,20.30
2018-07-12T21:48:06.266Z,20.30
2018-07-12T21:50:33.953Z,20.40
2018-07-12T21:53:01.684Z,20.30
2018-07-12T21:57:56.945Z,20.40
2018-07-12T22:00:24.605Z,20.50
2018-07-12T22:02:52.312Z,20.40
2018-07-12T22:05:19.965Z,20.30
2018-07-12T22:07:58.665Z,20.40
2018-07-12T22:10:26.555Z,20.40
2018-07-12T22:12:54.269Z,20.40
2018-07-12T22:15:22.001Z,20.30
2018-07-12T22:17:49.851Z,20.20
2018-07-12T22:20:17.449Z,20.20
2018-07-12T22:22:45.277Z,20.10
2018-07-12T22:25:13.103Z,20.00
2018-07-12T22:27:40.805Z,20.00
2018-07-12T22:30:08.500Z,20.00
2018-07-12T22:32:36.230Z,20.00
2018-07-12T22:35:03.905Z,19.90
2018-07-12T22:37:31.585Z,19.80
2018-07-12T22:39:59.251Z,19.90
2018-07-12T22:42:26.914Z,20.00
2018-07-12T22:44:54.578Z,19.90
2018-07-12T22:47:22.473Z,20.00
2018-07-12T22:49:50.112Z,19.90
2018-07-12T22:52:20.279Z,19.90
2018-07-12T22:54:48.753Z,19.80
2018-07-12T22:57:16.430Z,19.80
2018-07-12T22:59:44.116Z,19.80
2018-07-12T23:02:11.798Z,19.70
2018-07-12T23:04:39.501Z,19.70
2018-07-12T23:07:07.437Z,19.60
2018-07-12T23:09:35.123Z,19.60
2018-07-12T23:12:03.310Z,19.60
2018-07-12T23:14:31.031Z,19.70
2018-07-12T23:16:58.849Z,19.70
2018-07-12T23:19:26.507Z,19.60
2018-07-12T23:21:54.193Z,19.60
2018-07-12T23:24:21.877Z,19.60
2018-07-12T23:26:49.555Z,19.60
2018-07-12T23:29:17.243Z,19.60
2018-07-12T23:31:44.854Z,19.50
2018-07-12T23:34:12.531Z,19.60
2018-07-12T23:36:40.367Z,19.40
2018-07-12T23:39:08.699Z,19.40
2018-07-12T23:41:36.503Z,19.40
2018-07-12T23:44:04.203Z,19.30
2018-07-12T23:46:32.053Z,19.30
2018-07-12T23:48:59.871Z,19.40
2018-07-12T23:51:27.546Z,19.40
2018-07-12T23:53:55.202Z,19.40
2018-07-12T23:56:22.867Z,19.40
2018-07-12T23:58:51.230Z,19.40
